Time;durP1;ratioP1;P1;durP2;ratioP2;P2;SDS_P1;SDS_P2;PMS_P1;PMS_P2;Temp;Humidity;BMP_temperature;BMP_pressure;BME280_temperature;BME280_humidity;BME280_pressure;Samples;Min_cycle;Max_cycle;Signal;HPM_P1;HPM_P2
2022/05/23 00:00:17;;;;;;;6.82;3.88;;;;;;;;;;5095420;28;20039;-73
2022/05/23 00:02:44;;;;;;;7.65;3.58;;;;;;;;;;5101339;28;20044;-73
2022/05/23 00:05:10;;;;;;;8.35;3.88;;;;;;;;;;5103782;28;20039;-73
2022/05/23 00:07:38;;;;;;;7.72;3.95;;;;;;;;;;5093898;28;20058;-73
2022/05/23 00:10:05;;;;;;;7.40;3.75;;;;;;;;;;5105413;28;20050;-73
2022/05/23 00:12:32;;;;;;;6.97;3.65;;;;;;;;;;5099300;28;20048;-73
2022/05/23 00:14:58;;;;;;;7.65;3.83;;;;;;;;;;5097344;28;20067;-73
2022/05/23 00:17:24;;;;;;;7.93;4.00;;;;;;;;;;5106606;28;20043;-73
2022/05/23 00:19:50;;;;;;;6.10;3.45;;;;;;;;;;5094627;28;20521;-73
2022/05/23 00:22:17;;;;;;;6.65;3.63;;;;;;;;;;5101615;28;20131;-73
2022/05/23 00:24:45;;;;;;;6.60;3.60;;;;;;;;;;5102297;28;20074;-73
2022/05/23 00:27:12;;;;;;;6.47;3.70;;;;;;;;;;5093412;28;20044;-73
2022/05/23 00:29:48;;;;;;;6.25;3.65;;;;;;;;;;5105982;28;20040;-73
2022/05/23 00:37:44;;;;;;;7.45;3.42;;;;;;;;;;5080489;28;20528;-73
2022/05/23 00:40:30;;;;;;;6.47;3.55;;;;;;;;;;5099881;28;20556;-73
2022/05/23 00:43:13;;;;;;;6.15;3.38;;;;;;;;;;5088669;28;20387;-73
2022/05/23 00:45:39;;;;;;;6.47;3.45;;;;;;;;;;5096077;28;20032;-73
2022/05/23 00:48:06;;;;;;;6.55;3.63;;;;;;;;;;5081982;28;20040;-73
2022/05/23 00:50:33;;;;;;;5.80;3.90;;;;;;;;;;5104219;28;20394;-73
2022/05/23 00:53:00;;;;;;;8.77;4.10;;;;;;;;;;5087641;28;20043;-73
2022/05/23 00:55:31;;;;;;;8.55;3.92;;;;;;;;;;5095551;28;20047;-72
2022/05/23 00:58:02;;;;;;;6.90;3.75;;;;;;;;;;5098617;28;20044;-73
2022/05/23 01:00:29;;;;;;;8.15;3.90;;;;;;;;;;5088134;28;20451;-73
2022/05/23 01:02:57;;;;;;;6.50;3.60;;;;;;;;;;5092907;28;20039;-73
2022/05/23 01:05:24;;;;;;;7.20;3.67;;;;;;;;;;5102159;28;20437;-73
2022/05/23 01:07:51;;;;;;;6.45;3.83;;;;;;;;;;5101032;28;20043;-73
2022/05/23 01:10:17;;;;;;;7.50;4.03;;;;;;;;;;5093863;28;20036;-73
2022/05/23 01:12:43;;;;;;;6.15;3.72;;;;;;;;;;5105733;28;20091;-72
2022/05/23 01:15:20;;;;;;;6.35;4.00;;;;;;;;;;5096415;28;20039;-73
2022/05/23 01:17:46;;;;;;;7.45;4.47;;;;;;;;;;5097436;28;20044;-73
2022/05/23 01:20:13;;;;;;;7.78;4.15;;;;;;;;;;5105137;28;20043;-73
2022/05/23 01:22:39;;;;;;;7.80;4.65;;;;;;;;;;5092758;28;20074;-73
2022/05/23 01:25:05;;;;;;;9.85;4.57;;;;;;;;;;5101352;28;20526;-72
2022/05/23 01:27:32;;;;;;;8.25;4.82;;;;;;;;;;5092280;28;20127;-72
2022/05/23 01:29:58;;;;;;;8.20;4.20;;;;;;;;;;5103210;28;20045;-73
2022/05/23 01:32:24;;;;;;;6.35;3.90;;;;;;;;;;5092382;28;20039;-73
2022/05/23 01:34:50;;;;;;;6.97;4.10;;;;;;;;;;5102535;28;20470;-73
2022/05/23 01:37:17;;;;;;;6.75;4.10;;;;;;;;;;5088505;28;20056;-73
2022/05/23 01:39:43;;;;;;;6.47;4.22;;;;;;;;;;5086460;28;20410;-72
2022/05/23 01:42:09;;;;;;;8.32;4.80;;;;;;;;;;5092308;28;20136;-73
2022/05/23 01:44:36;;;;;;;8.95;5.25;;;;;;;;;;5102560;28;20260;-73
2022/05/23 01:47:10;;;;;;;7.47;4.57;;;;;;;;;;5094802;28;20122;-73
2022/05/23 01:49:36;;;;;;;9.00;4.88;;;;;;;;;;5093301;28;20032;-73
2022/05/23 01:52:03;;;;;;;8.45;4.88;;;;;;;;;;5105100;28;20039;-73
2022/05/23 01:54:29;;;;;;;8.55;4.93;;;;;;;;;;5095045;28;20093;-72
2022/05/23 01:56:55;;;;;;;7.47;5.20;;;;;;;;;;5098053;28;20496;-73
2022/05/23 02:02:06;;;;;;;9.68;5.68;;;;;;;;;;5076881;28;20039;-73
2022/05/23 02:04:32;;;;;;;9.00;5.50;;;;;;;;;;5099638;28;20051;-73
2022/05/23 02:06:58;;;;;;;7.72;5.15;;;;;;;;;;5083670;28;20274;-73
2022/05/23 02:09:27;;;;;;;8.88;6.05;;;;;;;;;;5106914;28;20046;-72
2022/05/23 02:11:54;;;;;;;8.02;6.25;;;;;;;;;;5104229;28;20040;-73
2022/05/23 02:14:20;;;;;;;9.25;5.78;;;;;;;;;;5095957;28;20160;-72
2022/05/23 02:16:46;;;;;;;8.98;6.50;;;;;;;;;;5095966;28;20126;-73
2022/05/23 02:19:13;;;;;;;9.70;6.10;;;;;;;;;;5104277;28;20044;-73
2022/05/23 02:21:45;;;;;;;7.60;5.88;;;;;;;;;;5091402;28;20069;-73
2022/05/23 02:24:11;;;;;;;10.43;6.90;;;;;;;;;;5099933;28;20399;-73
2022/05/23 02:26:37;;;;;;;8.00;6.20;;;;;;;;;;5100201;28;20487;-73
2022/05/23 02:29:05;;;;;;;10.27;5.82;;;;;;;;;;5091886;28;20071;-73
2022/05/23 02:31:31;;;;;;;9.10;5.97;;;;;;;;;;5076144;28;20578;-73
2022/05/23 02:33:57;;;;;;;9.23;6.45;;;;;;;;;;5099790;28;20036;-73
2022/05/23 02:36:23;;;;;;;10.73;7.00;;;;;;;;;;5099033;28;20082;-73
2022/05/23 02:38:50;;;;;;;9.82;7.07;;;;;;;;;;5075069;28;20044;-73
2022/05/23 02:41:16;;;;;;;9.18;7.85;;;;;;;;;;5104117;28;20089;-73
2022/05/23 02:43:42;;;;;;;8.13;6.55;;;;;;;;;;5094408;28;20051;-73
2022/05/23 02:46:09;;;;;;;9.85;6.40;;;;;;;;;;5096505;28;20231;-72
2022/05/23 02:48:35;;;;;;;10.00;6.75;;;;;;;;;;5102290;28;20048;-72
2022/05/23 02:51:01;;;;;;;10.23;8.48;;;;;;;;;;5090891;28;20126;-73
2022/05/23 02:53:27;;;;;;;11.43;8.10;;;;;;;;;;5101293;28;20032;-72
2022/05/23 02:55:54;;;;;;;10.63;7.80;;;;;;;;;;5097939;28;20066;-72
2022/05/23 02:58:20;;;;;;;9.93;7.53;;;;;;;;;;5093448;28;20049;-72
2022/05/23 03:00:47;;;;;;;9.13;7.07;;;;;;;;;;5103019;28;20048;-73
2022/05/23 03:03:13;;;;;;;9.70;7.40;;;;;;;;;;5092881;28;20039;-72
2022/05/23 03:05:40;;;;;;;11.38;7.95;;;;;;;;;;5097460;28;20044;-73
2022/05/23 03:08:06;;;;;;;9.05;6.80;;;;;;;;;;5101518;28;20055;-73
2022/05/23 03:10:33;;;;;;;8.82;6.88;;;;;;;;;;5090794;28;20037;-72
2022/05/23 03:12:59;;;;;;;11.25;8.10;;;;;;;;;;5072264;28;20403;-72
2022/05/23 03:15:27;;;;;;;9.77;7.45;;;;;;;;;;5096509;28;20047;-72
2022/05/23 03:17:53;;;;;;;10.75;8.02;;;;;;;;;;5094358;28;20044;-73
2022/05/23 03:20:19;;;;;;;9.60;8.68;;;;;;;;;;5103522;28;20134;-73
2022/05/23 03:28:15;;;;;;;10.73;8.57;;;;;;;;;;5090822;28;20207;-73
2022/05/23 03:30:42;;;;;;;11.48;8.82;;;;;;;;;;5102617;28;20048;-73
2022/05/23 03:33:08;;;;;;;11.30;8.35;;;;;;;;;;5096991;28;20407;-72
2022/05/23 03:35:35;;;;;;;11.77;8.93;;;;;;;;;;5093449;28;20177;-73
2022/05/23 03:38:02;;;;;;;13.00;8.80;;;;;;;;;;5103493;28;20091;-73
2022/05/23 03:40:28;;;;;;;11.80;8.80;;;;;;;;;;5091576;28;20070;-73
2022/05/23 03:42:57;;;;;;;10.93;7.90;;;;;;;;;;5091656;28;20043;-73
2022/05/23 03:45:23;;;;;;;10.93;8.75;;;;;;;;;;5093791;28;20070;-73
2022/05/23 03:47:50;;;;;;;10.60;8.30;;;;;;;;;;5075375;28;20051;-73
2022/05/23 03:50:17;;;;;;;10.57;8.90;;;;;;;;;;5102393;28;20127;-73
2022/05/23 03:52:44;;;;;;;11.18;8.57;;;;;;;;;;5092059;28;20036;-73
2022/05/23 03:55:10;;;;;;;11.02;8.85;;;;;;;;;;5094954;28;20132;-73
2022/05/23 03:57:37;;;;;;;10.45;8.57;;;;;;;;;;5074543;28;20556;-72
2022/05/23 04:00:06;;;;;;;11.63;8.60;;;;;;;;;;5102755;28;20086;-72
2022/05/23 04:02:32;;;;;;;10.35;9.00;;;;;;;;;;5091579;28;20043;-72
2022/05/23 04:04:59;;;;;;;12.82;8.90;;;;;;;;;;5094240;28;20043;-73
2022/05/23 04:07:25;;;;;;;11.70;9.32;;;;;;;;;;5084222;28;20394;-72
2022/05/23 04:09:51;;;;;;;11.35;9.10;;;;;;;;;;5073524;28;20096;-73
2022/05/23 04:12:17;;;;;;;10.75;8.50;;;;;;;;;;5097386;28;20395;-73
2022/05/23 04:14:43;;;;;;;10.32;8.55;;;;;;;;;;5098891;28;20059;-72
2022/05/23 04:17:10;;;;;;;14.48;9.93;;;;;;;;;;5088173;28;20047;-72
2022/05/23 04:19:36;;;;;;;12.55;9.65;;;;;;;;;;5106383;28;20043;-73
2022/05/23 04:22:02;;;;;;;10.05;8.55;;;;;;;;;;5087653;28;20051;-72
2022/05/23 04:24:28;;;;;;;13.35;8.73;;;;;;;;;;5101355;28;20422;-73
2022/05/23 04:26:55;;;;;;;9.65;8.63;;;;;;;;;;5091752;28;20071;-72
2022/05/23 04:29:22;;;;;;;8.98;7.68;;;;;;;;;;5106640;28;20502;-72
2022/05/23 04:31:48;;;;;;;10.02;8.73;;;;;;;;;;5097011;28;20490;-72
2022/05/23 04:36:59;;;;;;;11.90;8.88;;;;;;;;;;5098333;28;20526;-72
2022/05/23 04:39:25;;;;;;;12.18;8.50;;;;;;;;;;5078901;28;20573;-72
2022/05/23 04:41:52;;;;;;;12.80;8.98;;;;;;;;;;5101663;28;20083;-72
2022/05/23 04:44:18;;;;;;;11.82;8.45;;;;;;;;;;5102060;28;20035;-72
2022/05/23 04:49:41;;;;;;;11.48;8.98;;;;;;;;;;5066978;28;20059;-72
2022/05/23 04:52:08;;;;;;;12.48;9.50;;;;;;;;;;5076730;28;20040;-72
2022/05/23 04:54:35;;;;;;;10.35;8.73;;;;;;;;;;5093702;28;20488;-72
2022/05/23 04:57:01;;;;;;;12.82;9.93;;;;;;;;;;5092234;28;20058;-73
2022/05/23 04:59:27;;;;;;;13.18;9.88;;;;;;;;;;5102551;28;20036;-72
2022/05/23 05:01:53;;;;;;;11.60;8.65;;;;;;;;;;5100808;28;20043;-72
2022/05/23 05:04:20;;;;;;;12.38;8.27;;;;;;;;;;5093958;28;20040;-73
2022/05/23 05:06:46;;;;;;;10.90;8.48;;;;;;;;;;5105633;28;20052;-72
2022/05/23 05:09:12;;;;;;;10.93;8.45;;;;;;;;;;5096415;28;20050;-73
2022/05/23 05:11:39;;;;;;;13.20;8.25;;;;;;;;;;5099892;28;20075;-73
2022/05/23 05:14:05;;;;;;;13.75;10.15;;;;;;;;;;5104095;28;20074;-72
2022/05/23 05:16:32;;;;;;;11.65;9.40;;;;;;;;;;5094048;28;20040;-72
2022/05/23 05:18:59;;;;;;;10.68;9.10;;;;;;;;;;5099842;28;20047;-72
2022/05/23 05:21:25;;;;;;;13.23;9.63;;;;;;;;;;5086056;28;20040;-73
2022/05/23 05:23:52;;;;;;;11.23;9.23;;;;;;;;;;5102723;28;20100;-73
2022/05/23 05:26:18;;;;;;;11.70;9.07;;;;;;;;;;5091039;28;20051;-74
2022/05/23 05:28:44;;;;;;;10.82;9.18;;;;;;;;;;5103553;28;20096;-75
2022/05/23 05:31:14;;;;;;;13.75;8.73;;;;;;;;;;5098509;28;20546;-74
2022/05/23 05:33:42;;;;;;;12.68;8.73;;;;;;;;;;5094959;28;20156;-75
2022/05/23 05:36:11;;;;;;;11.45;8.68;;;;;;;;;;5087987;28;20047;-74
2022/05/23 05:38:41;;;;;;;12.05;8.95;;;;;;;;;;5094786;28;20059;-74
2022/05/23 05:41:11;;;;;;;12.35;9.93;;;;;;;;;;5098036;28;20093;-74
2022/05/23 05:43:39;;;;;;;12.20;8.82;;;;;;;;;;5103815;28;20431;-74
2022/05/23 05:46:09;;;;;;;12.30;8.45;;;;;;;;;;5088549;28;20055;-74
2022/05/23 05:48:40;;;;;;;11.48;9.20;;;;;;;;;;5085565;28;20123;-74
2022/05/23 05:51:07;;;;;;;10.65;8.65;;;;;;;;;;5090045;28;20111;-74
2022/05/23 05:53:33;;;;;;;11.57;9.23;;;;;;;;;;5088305;28;20137;-74
2022/05/23 05:56:04;;;;;;;12.32;9.13;;;;;;;;;;5105003;28;20139;-74
2022/05/23 05:58:30;;;;;;;11.38;9.32;;;;;;;;;;5096370;28;20035;-74
2022/05/23 06:00:57;;;;;;;10.27;8.25;;;;;;;;;;5096537;28;20040;-75
2022/05/23 06:03:23;;;;;;;10.52;8.88;;;;;;;;;;5104644;28;20066;-75
2022/05/23 06:11:29;;;;;;;10.80;8.55;;;;;;;;;;5104496;28;20051;-75
2022/05/23 06:13:59;;;;;;;11.65;8.70;;;;;;;;;;5102987;28;20036;-75
2022/05/23 06:16:25;;;;;;;10.18;9.07;;;;;;;;;;5097996;28;20398;-75
2022/05/23 06:18:52;;;;;;;11.35;9.10;;;;;;;;;;5077686;28;20203;-75
2022/05/23 06:21:18;;;;;;;11.75;9.55;;;;;;;;;;5104262;28;20067;-74
2022/05/23 06:23:46;;;;;;;12.57;9.60;;;;;;;;;;5093099;28;20466;-75
2022/05/23 06:26:16;;;;;;;11.95;9.50;;;;;;;;;;5098501;28;20055;-75
2022/05/23 06:28:45;;;;;;;10.55;8.63;;;;;;;;;;5101558;28;20520;-75
2022/05/23 06:31:12;;;;;;;14.30;9.93;;;;;;;;;;5090808;28;20105;-75
2022/05/23 06:33:38;;;;;;;12.95;9.02;;;;;;;;;;5094740;28;20039;-76
2022/05/23 06:36:05;;;;;;;10.93;7.65;;;;;;;;;;5090952;28;20060;-75
2022/05/23 06:38:32;;;;;;;12.48;9.18;;;;;;;;;;5102873;28;20052;-75
2022/05/23 06:40:58;;;;;;;11.98;9.02;;;;;;;;;;5087187;28;20082;-76
2022/05/23 06:43:25;;;;;;;13.05;8.30;;;;;;;;;;5092111;28;20613;-75
2022/05/23 06:45:51;;;;;;;10.00;8.30;;;;;;;;;;5094329;28;20042;-75
2022/05/23 06:48:18;;;;;;;11.13;8.35;;;;;;;;;;5084116;28;20504;-75
2022/05/23 06:50:47;;;;;;;9.52;8.38;;;;;;;;;;5082621;28;20399;-75
2022/05/23 06:53:13;;;;;;;14.60;8.25;;;;;;;;;;5076227;28;20403;-75
2022/05/23 06:55:39;;;;;;;10.45;8.23;;;;;;;;;;5080187;28;20436;-75
2022/05/23 06:58:06;;;;;;;11.13;7.43;;;;;;;;;;5061894;28;20511;-75
2022/05/23 07:00:33;;;;;;;14.70;8.60;;;;;;;;;;5082548;28;20051;-76
2022/05/23 07:02:59;;;;;;;11.70;8.23;;;;;;;;;;5084664;28;20433;-76
2022/05/23 07:13:39;;;;;;;12.18;9.27;;;;;;;;;;5081108;28;20510;-75
2022/05/23 07:16:05;;;;;;;12.32;9.18;;;;;;;;;;5086031;28;20094;-75
2022/05/23 07:18:32;;;;;;;10.50;7.82;;;;;;;;;;5091813;28;20054;-76
2022/05/23 07:20:58;;;;;;;11.80;8.55;;;;;;;;;;5100446;28;20040;-76
2022/05/23 07:23:24;;;;;;;11.68;8.25;;;;;;;;;;5086973;28;20047;-75
2022/05/23 07:25:50;;;;;;;11.07;7.82;;;;;;;;;;5101508;28;20046;-76
2022/05/23 07:28:16;;;;;;;11.90;8.50;;;;;;;;;;5088581;28;20046;-76
2022/05/23 07:30:43;;;;;;;12.18;8.98;;;;;;;;;;5071386;28;20047;-75
2022/05/23 07:33:09;;;;;;;10.85;8.10;;;;;;;;;;5096227;28;20122;-75
2022/05/23 07:35:36;;;;;;;10.95;8.07;;;;;;;;;;5088372;28;20123;-75
2022/05/23 07:38:03;;;;;;;13.60;8.57;;;;;;;;;;5107040;28;20048;-76
2022/05/23 07:40:29;;;;;;;12.88;8.55;;;;;;;;;;5093539;28;20035;-75
2022/05/23 07:42:55;;;;;;;12.52;8.63;;;;;;;;;;5067934;28;20040;-77
2022/05/23 07:45:21;;;;;;;9.98;8.02;;;;;;;;;;5100773;28;20699;-76
2022/05/23 07:47:48;;;;;;;12.02;8.13;;;;;;;;;;5093185;28;20062;-77
2022/05/23 07:50:14;;;;;;;11.15;8.60;;;;;;;;;;5075233;28;20039;-76
2022/05/23 08:00:30;;;;;;;11.50;7.78;;;;;;;;;;5101213;28;20051;-74
2022/05/23 08:00:56;;;;;;;11.18;8.05;;;;;;;;;;5102454;28;20074;-74
2022/05/23 08:03:22;;;;;;;11.73;8.20;;;;;;;;;;5078338;28;20452;-75
2022/05/23 08:05:48;;;;;;;9.32;6.95;;;;;;;;;;5106738;28;20084;-77
2022/05/23 08:08:14;;;;;;;10.32;7.32;;;;;;;;;;5097651;28;20048;-77
2022/05/23 08:10:41;;;;;;;11.98;8.30;;;;;;;;;;5099362;28;20403;-74
2022/05/23 08:13:10;;;;;;;9.40;7.10;;;;;;;;;;5098908;28;20483;-78
2022/05/23 08:15:37;;;;;;;10.75;7.43;;;;;;;;;;5107122;28;20052;-76
2022/05/23 08:18:04;;;;;;;10.55;6.88;;;;;;;;;;5097702;28;20406;-76
2022/05/23 08:20:31;;;;;;;11.77;7.13;;;;;;;;;;5099409;28;20109;-76
2022/05/23 08:22:59;;;;;;;12.18;7.30;;;;;;;;;;5083713;28;20568;-76
2022/05/23 08:25:25;;;;;;;9.13;6.43;;;;;;;;;;5092086;28;20047;-76
2022/05/23 08:27:55;;;;;;;11.48;6.03;;;;;;;;;;5103625;28;20562;-75
2022/05/23 08:30:22;;;;;;;10.32;6.28;;;;;;;;;;5101386;28;20035;-75
2022/05/23 08:32:48;;;;;;;11.85;7.25;;;;;;;;;;5095239;28;20389;-76
2022/05/23 08:35:14;;;;;;;11.13;7.45;;;;;;;;;;5106199;28;20044;-77
2022/05/23 08:37:41;;;;;;;9.02;5.10;;;;;;;;;;5070560;28;20063;-76
2022/05/23 08:40:09;;;;;;;13.02;6.72;;;;;;;;;;5071913;28;20507;-76
2022/05/23 08:42:55;;;;;;;10.77;7.70;;;;;;;;;;5090122;28;20052;-77
2022/05/23 08:45:34;;;;;;;11.05;6.35;;;;;;;;;;5077242;28;20079;-76
2022/05/23 08:48:08;;;;;;;11.55;6.32;;;;;;;;;;5078616;28;20448;-76
2022/05/23 08:50:53;;;;;;;10.75;6.60;;;;;;;;;;5090121;28;20384;-77
2022/05/23 08:53:30;;;;;;;11.88;7.05;;;;;;;;;;5090256;28;20106;-76
2022/05/23 08:56:03;;;;;;;11.38;7.00;;;;;;;;;;5080164;28;20148;-78
2022/05/23 08:58:39;;;;;;;9.95;6.45;;;;;;;;;;5062929;28;20040;-77
2022/05/23 09:01:16;;;;;;;10.07;6.70;;;;;;;;;;5075138;28;20044;-76
2022/05/23 09:03:49;;;;;;;8.40;5.60;;;;;;;;;;5089426;28;20051;-77
2022/05/23 09:06:28;;;;;;;10.60;6.03;;;;;;;;;;5080739;28;20125;-78
2022/05/23 09:09:06;;;;;;;12.93;6.05;;;;;;;;;;5079302;28;20165;-77
2022/05/23 09:11:35;;;;;;;10.98;5.80;;;;;;;;;;5083123;28;20093;-77
2022/05/23 09:14:03;;;;;;;7.88;4.85;;;;;;;;;;5065560;28;20044;-78
2022/05/23 09:16:32;;;;;;;9.52;5.70;;;;;;;;;;5103862;28;20358;-77
2022/05/23 09:19:02;;;;;;;9.93;4.75;;;;;;;;;;5087380;28;20094;-78
2022/05/23 09:24:14;;;;;;;10.52;5.05;;;;;;;;;;5093499;28;20499;-77
2022/05/23 09:26:41;;;;;;;9.45;6.05;;;;;;;;;;5103844;28;20036;-79
2022/05/23 09:29:08;;;;;;;9.65;5.15;;;;;;;;;;5098583;28;20074;-78
2022/05/23 09:31:53;;;;;;;9.52;5.60;;;;;;;;;;5095805;28;20572;-76
2022/05/23 09:34:28;;;;;;;8.57;4.60;;;;;;;;;;5088534;28;20044;-77
2022/05/23 09:36:55;;;;;;;9.20;4.78;;;;;;;;;;5097443;28;20568;-76
2022/05/23 09:39:23;;;;;;;7.50;4.47;;;;;;;;;;5089591;28;20413;-81
2022/05/23 09:47:46;;;;;;;8.43;4.30;;;;;;;;;;5094669;28;20082;-76
2022/05/23 09:50:27;;;;;;;8.88;5.18;;;;;;;;;;5066086;28;20309;-77
2022/05/23 09:52:56;;;;;;;11.32;4.50;;;;;;;;;;5090052;28;20090;-79
2022/05/23 09:55:28;;;;;;;7.78;4.38;;;;;;;;;;5093874;28;20050;-79
2022/05/23 09:57:55;;;;;;;8.40;3.90;;;;;;;;;;5097834;28;20052;-77
2022/05/23 10:00:22;;;;;;;8.95;4.70;;;;;;;;;;5101800;28;20150;-78
2022/05/23 10:02:48;;;;;;;6.00;3.55;;;;;;;;;;5083037;28;20123;-79
2022/05/23 10:05:35;;;;;;;6.18;3.50;;;;;;;;;;5092839;28;20032;-78
2022/05/23 10:08:03;;;;;;;7.63;4.22;;;;;;;;;;5079795;28;20036;-77
2022/05/23 10:10:33;;;;;;;8.80;4.10;;;;;;;;;;5098385;28;20403;-77
2022/05/23 10:13:18;;;;;;;7.25;4.20;;;;;;;;;;5102414;28;20046;-77
2022/05/23 10:15:45;;;;;;;;;;;;;;;;;;5072944;28;20103;-80
2022/05/23 10:18:18;;;;;;;7.13;3.72;;;;;;;;;;5081945;28;19920;-78
2022/05/23 10:20:45;;;;;;;5.80;3.55;;;;;;;;;;5096576;28;20035;-78
2022/05/23 10:23:18;;;;;;;6.97;3.50;;;;;;;;;;5076765;28;20263;-78
2022/05/23 10:25:44;;;;;;;6.30;2.80;;;;;;;;;;5060644;28;20039;-77
2022/05/23 10:28:16;;;;;;;6.35;3.13;;;;;;;;;;5078057;28;20040;-76
2022/05/23 10:30:48;;;;;;;5.22;3.00;;;;;;;;;;5085974;28;20031;-77
2022/05/23 10:33:14;;;;;;;6.38;3.25;;;;;;;;;;5090876;28;20042;-77
2022/05/23 10:35:46;;;;;;;6.47;2.83;;;;;;;;;;5085831;28;20122;-77
2022/05/23 10:44:24;;;;;;;5.90;3.22;;;;;;;;;;5095358;28;20275;-78
2022/05/23 10:47:03;;;;;;;8.10;3.25;;;;;;;;;;5083232;28;20467;-76
2022/05/23 10:49:35;;;;;;;6.45;3.25;;;;;;;;;;5085121;28;20391;-77
2022/05/23 10:52:13;;;;;;;6.82;3.67;;;;;;;;;;5089611;28;20452;-77
2022/05/23 10:54:52;;;;;;;8.50;3.75;;;;;;;;;;5107323;28;20074;-78
2022/05/23 10:57:37;;;;;;;5.45;3.17;;;;;;;;;;5091010;28;20040;-79
2022/05/23 11:00:03;;;;;;;;;;;;;;;;;;5071709;28;20539;-77
2022/05/23 11:02:42;;;;;;;7.95;3.95;;;;;;;;;;5067768;28;19916;-77
2022/05/23 11:05:08;;;;;;;13.10;4.88;;;;;;;;;;5109358;28;20039;-77
2022/05/23 11:07:54;;;;;;;7.20;3.83;;;;;;;;;;5091233;28;20390;-76
2022/05/23 11:10:28;;;;;;;9.45;4.45;;;;;;;;;;5094090;28;20086;-76
2022/05/23 11:13:06;;;;;;;7.00;3.50;;;;;;;;;;5081909;28;20516;-78
2022/05/23 11:15:36;;;;;;;6.13;3.30;;;;;;;;;;5069752;28;20039;-79
2022/05/23 11:18:21;;;;;;;7.43;3.70;;;;;;;;;;5101706;28;20047;-77
2022/05/23 11:20:49;;;;;;;7.70;3.88;;;;;;;;;;5073994;28;20499;-76
2022/05/23 11:23:22;;;;;;;7.82;4.25;;;;;;;;;;5090364;28;20089;-77
2022/05/23 11:25:52;;;;;;;6.93;3.72;;;;;;;;;;5100462;28;20394;-77
2022/05/23 11:34:01;;;;;;;9.32;3.88;;;;;;;;;;5104753;28;20246;-76
2022/05/23 11:36:56;;;;;;;6.78;3.50;;;;;;;;;;5096269;28;20386;-77
2022/05/23 11:39:41;;;;;;;8.45;3.45;;;;;;;;;;5097653;28;20048;-77
2022/05/23 11:42:30;;;;;;;4.97;2.80;;;;;;;;;;5107405;28;20097;-77
2022/05/23 11:45:56;;;;;;;5.63;3.28;;;;;;;;;;5095784;28;20050;-78
2022/05/23 11:47:51;;;;;;;5.72;3.00;;;;;;;;;;5090685;28;20433;-77
2022/05/23 11:50:33;;;;;;;5.97;3.13;;;;;;;;;;5105542;28;20093;-76
2022/05/23 11:53:09;;;;;;;5.45;3.20;;;;;;;;;;5102858;28;20040;-78
2022/05/23 11:55:50;;;;;;;6.55;3.42;;;;;;;;;;5094466;28;20070;-77
2022/05/23 11:58:37;;;;;;;8.18;3.17;;;;;;;;;;5073266;28;20047;-78
2022/05/23 12:01:03;;;;;;;6.15;3.20;;;;;;;;;;5052655;28;20052;-78
2022/05/23 12:03:49;;;;;;;4.53;2.72;;;;;;;;;;5078282;28;20047;-77
2022/05/23 12:06:25;;;;;;;5.55;3.30;;;;;;;;;;5080735;28;20059;-75
2022/05/23 12:09:11;;;;;;;6.28;3.30;;;;;;;;;;5084023;28;20063;-75
2022/05/23 12:11:38;;;;;;;4.97;2.92;;;;;;;;;;5088096;28;20043;-76
2022/05/23 12:14:15;;;;;;;5.32;2.90;;;;;;;;;;5074512;28;20044;-76
2022/05/23 12:16:42;;;;;;;4.45;3.10;;;;;;;;;;5082656;28;20048;-76
2022/05/23 12:19:12;;;;;;;5.90;3.22;;;;;;;;;;5084226;28;20051;-77
2022/05/23 12:21:38;;;;;;;5.78;3.40;;;;;;;;;;5082714;28;20039;-75
2022/05/23 12:24:35;;;;;;;6.15;3.10;;;;;;;;;;5090993;28;20036;-76
2022/05/23 12:27:04;;;;;;;6.60;3.15;;;;;;;;;;5075245;28;20056;-75
2022/05/23 12:29:35;;;;;;;5.07;3.00;;;;;;;;;;5088086;28;20039;-75
2022/05/23 12:32:07;;;;;;;6.15;3.20;;;;;;;;;;5101753;28;20051;-76
2022/05/23 12:34:52;;;;;;;5.95;3.08;;;;;;;;;;5095483;28;20040;-75
2022/05/23 12:37:30;;;;;;;5.78;3.30;;;;;;;;;;5080017;28;20054;-76
2022/05/23 12:40:01;;;;;;;5.78;3.30;;;;;;;;;;5083101;28;20446;-76
2022/05/23 12:42:46;;;;;;;6.93;3.30;;;;;;;;;;5099985;28;20046;-77
2022/05/23 12:45:30;;;;;;;6.07;3.22;;;;;;;;;;5089924;28;20389;-76
2022/05/23 12:47:56;;;;;;;5.97;3.60;;;;;;;;;;5073439;28;20089;-76
2022/05/23 12:50:35;;;;;;;7.15;3.92;;;;;;;;;;5104583;28;20040;-76
2022/05/23 12:53:10;;;;;;;6.13;3.30;;;;;;;;;;5075445;28;20490;-77
2022/05/23 12:56:03;;;;;;;6.93;3.55;;;;;;;;;;5093816;28;20126;-76
2022/05/23 12:58:38;;;;;;;6.43;3.75;;;;;;;;;;5108773;28;20085;-76
2022/05/23 13:01:07;;;;;;;6.15;3.10;;;;;;;;;;5091949;28;20040;-75
2022/05/23 13:03:42;;;;;;;6.20;3.10;;;;;;;;;;5090358;28;20134;-76
2022/05/23 13:06:09;;;;;;;7.75;3.30;;;;;;;;;;5105821;28;20115;-76
2022/05/23 13:08:42;;;;;;;6.10;3.33;;;;;;;;;;5081666;28;20403;-76
2022/05/23 13:11:29;;;;;;;11.45;3.58;;;;;;;;;;5078698;28;20036;-76
2022/05/23 13:13:58;;;;;;;5.95;3.40;;;;;;;;;;5088886;28;20141;-76
2022/05/23 13:16:26;;;;;;;6.97;3.30;;;;;;;;;;5088191;28;20040;-76
2022/05/23 13:27:10;;;;;;;7.65;3.25;;;;;;;;;;5095448;28;20055;-76
2022/05/23 13:29:37;;;;;;;7.25;3.50;;;;;;;;;;5084186;28;20105;-76
2022/05/23 13:32:09;;;;;;;5.78;3.80;;;;;;;;;;5090281;28;20055;-76
2022/05/23 13:34:36;;;;;;;8.15;4.30;;;;;;;;;;5089484;28;20165;-76
2022/05/23 13:37:03;;;;;;;6.47;3.53;;;;;;;;;;5087850;28;20062;-76
2022/05/23 13:39:29;;;;;;;7.60;3.78;;;;;;;;;;5087853;28;20040;-76
2022/05/23 13:41:56;;;;;;;7.18;3.97;;;;;;;;;;5086531;28;20052;-76
2022/05/23 13:44:28;;;;;;;7.53;4.25;;;;;;;;;;5087657;28;20036;-75
2022/05/23 13:46:58;;;;;;;7.55;3.95;;;;;;;;;;5083664;28;20572;-76
2022/05/23 13:49:30;;;;;;;4.90;3.47;;;;;;;;;;5072821;28;20048;-77
2022/05/23 13:52:06;;;;;;;6.25;3.72;;;;;;;;;;5089355;28;20040;-77
2022/05/23 13:54:46;;;;;;;6.63;4.10;;;;;;;;;;5088750;28;20040;-77
2022/05/23 13:57:33;;;;;;;7.57;3.92;;;;;;;;;;5084980;28;20104;-76
2022/05/23 14:00:01;;;;;;;8.32;4.10;;;;;;;;;;5074445;28;20125;-77
2022/05/23 14:02:33;;;;;;;7.25;4.03;;;;;;;;;;5099102;28;20152;-77
2022/05/23 14:05:00;;;;;;;6.47;3.83;;;;;;;;;;5095929;28;20028;-77
2022/05/23 14:07:27;;;;;;;6.82;4.45;;;;;;;;;;5090225;28;20048;-77
2022/05/23 14:09:55;;;;;;;7.03;4.40;;;;;;;;;;5095355;28;20047;-77
2022/05/23 14:12:30;;;;;;;8.20;4.43;;;;;;;;;;5110399;28;20048;-77
2022/05/23 14:15:01;;;;;;;7.80;4.57;;;;;;;;;;5095264;28;20040;-76
2022/05/23 14:17:39;;;;;;;6.57;4.30;;;;;;;;;;5090117;28;20039;-77
2022/05/23 14:20:13;;;;;;;6.38;3.95;;;;;;;;;;5098592;28;20454;-77
2022/05/23 14:22:40;;;;;;;6.75;3.63;;;;;;;;;;5096109;28;20043;-77
2022/05/23 14:25:20;;;;;;;7.47;4.03;;;;;;;;;;5105640;28;20039;-77
2022/05/23 14:27:48;;;;;;;7.00;4.20;;;;;;;;;;5096684;28;20050;-77
2022/05/23 14:30:17;;;;;;;6.90;3.83;;;;;;;;;;5110228;28;20507;-77
2022/05/23 14:32:53;;;;;;;7.40;3.95;;;;;;;;;;5094465;28;20101;-77
2022/05/23 14:35:20;;;;;;;6.72;3.95;;;;;;;;;;5069332;28;20087;-77
2022/05/23 14:37:47;;;;;;;6.75;4.13;;;;;;;;;;5079345;28;20052;-77
2022/05/23 14:40:20;;;;;;;7.88;4.22;;;;;;;;;;5102061;28;20039;-77
2022/05/23 14:42:50;;;;;;;8.25;4.55;;;;;;;;;;5092086;28;20040;-77
2022/05/23 14:45:18;;;;;;;8.80;4.40;;;;;;;;;;5094640;28;20047;-77
2022/05/23 14:48:03;;;;;;;6.20;4.10;;;;;;;;;;5082902;28;20044;-76
2022/05/23 14:50:29;;;;;;;;;;;;;;;;;;5105803;28;20031;-77
2022/05/23 14:55:56;;;;;;;7.03;3.92;;;;;;;;;;5109127;28;20060;-77
2022/05/23 15:01:16;;;;;;;5.85;3.72;;;;;;;;;;5081537;28;20092;-77
2022/05/23 15:03:44;;;;;;;6.47;4.00;;;;;;;;;;5096920;28;20044;-78
2022/05/23 15:06:11;;;;;;;6.22;4.10;;;;;;;;;;5087299;28;20116;-77
2022/05/23 15:08:37;;;;;;;5.43;3.95;;;;;;;;;;5092191;28;20124;-77
2022/05/23 15:11:12;;;;;;;6.50;4.22;;;;;;;;;;5085198;28;20081;-77
2022/05/23 15:13:39;;;;;;;7.63;4.30;;;;;;;;;;5101848;28;20067;-77
2022/05/23 15:16:05;;;;;;;6.40;4.07;;;;;;;;;;5091741;28;20059;-77
2022/05/23 15:18:33;;;;;;;6.10;4.28;;;;;;;;;;5074736;28;20071;-77
2022/05/23 15:21:00;;;;;;;5.65;4.13;;;;;;;;;;5099107;28;20044;-78
2022/05/23 15:23:26;;;;;;;6.93;4.28;;;;;;;;;;5086351;28;20044;-77
2022/05/23 15:25:53;;;;;;;7.07;4.18;;;;;;;;;;5070602;28;20090;-77
2022/05/23 15:28:19;;;;;;;8.80;4.82;;;;;;;;;;5101808;28;20055;-77
2022/05/23 15:30:46;;;;;;;7.75;4.40;;;;;;;;;;5080995;28;20042;-77
2022/05/23 15:33:14;;;;;;;7.70;4.65;;;;;;;;;;5079839;28;20036;-77
2022/05/23 15:35:40;;;;;;;8.30;4.65;;;;;;;;;;5104220;28;20096;-77
2022/05/23 15:38:06;;;;;;;7.97;4.38;;;;;;;;;;5105914;28;20152;-76
2022/05/23 15:40:46;;;;;;;6.45;4.30;;;;;;;;;;5094258;28;20081;-76
2022/05/23 15:43:13;;;;;;;8.82;4.50;;;;;;;;;;5094153;28;20097;-75
2022/05/23 15:45:46;;;;;;;7.32;4.43;;;;;;;;;;5103297;28;20039;-76
2022/05/23 15:48:12;;;;;;;7.63;4.63;;;;;;;;;;5084373;28;20499;-76
2022/05/23 15:50:39;;;;;;;8.32;4.95;;;;;;;;;;5085780;28;20118;-77
2022/05/23 15:53:07;;;;;;;9.20;4.65;;;;;;;;;;5084084;28;20055;-77
2022/05/23 15:55:33;;;;;;;7.07;4.25;;;;;;;;;;5071951;28;20087;-76
2022/05/23 15:57:59;;;;;;;8.20;4.93;;;;;;;;;;5082593;28;20055;-76
2022/05/23 16:00:27;;;;;;;5.53;4.25;;;;;;;;;;5086706;28;20334;-76
2022/05/23 16:02:54;;;;;;;6.50;4.25;;;;;;;;;;5086349;28;20052;-76
2022/05/23 16:05:27;;;;;;;7.30;4.82;;;;;;;;;;5091073;28;20094;-76